Time;durP1;ratioP1;P1;durP2;ratioP2;P2;SDS_P1;SDS_P2;PMS_P1;PMS_P2;Temp;Humidity;BMP_temperature;BMP_pressure;BME280_temperature;BME280_humidity;BME280_pressure;Samples;Min_cycle;Max_cycle;Signal;HPM_P1;HPM_P2
2021/03/18 00:01:47;;;;;;;16.63;10.88;;;;;;;-1.07;100.00;101604.31;4985614;28;20050;-51
2021/03/18 00:04:17;;;;;;;20.52;11.10;;;;;;;-0.84;100.00;101606.31;4986081;28;20555;-50
2021/03/18 00:06:46;;;;;;;16.58;11.10;;;;;;;-0.88;100.00;101596.78;4984609;28;20054;-48
2021/03/18 00:09:15;;;;;;;15.80;10.30;;;;;;;-1.31;100.00;101590.53;4985791;28;20050;-49
2021/03/18 00:11:44;;;;;;;17.60;11.43;;;;;;;-1.56;100.00;101596.66;4984024;28;20062;-48
2021/03/18 00:14:12;;;;;;;16.30;10.95;;;;;;;-1.19;100.00;101589.84;4985698;28;20050;-47
2021/03/18 00:16:39;;;;;;;16.60;10.80;;;;;;;-1.04;100.00;101586.13;4995671;28;20061;-49
2021/03/18 00:19:07;;;;;;;20.30;12.27;;;;;;;-1.14;100.00;101584.47;4987164;28;20097;-49
2021/03/18 00:21:34;;;;;;;20.67;11.90;;;;;;;-1.55;100.00;101593.41;4984965;28;20078;-47
2021/03/18 00:24:01;;;;;;;17.02;10.85;;;;;;;-1.82;100.00;101590.19;4984760;28;20053;-50
2021/03/18 00:26:30;;;;;;;18.27;10.95;;;;;;;-1.51;100.00;101597.06;4984953;28;20116;-48
2021/03/18 00:29:01;;;;;;;15.52;10.00;;;;;;;-1.28;100.00;101587.41;4984892;28;20597;-49
2021/03/18 00:31:30;;;;;;;15.40;9.82;;;;;;;-1.47;100.00;101591.56;4991195;28;20420;-49
2021/03/18 00:33:57;;;;;;;15.38;9.88;;;;;;;-1.34;100.00;101581.81;4984972;28;20782;-49
2021/03/18 00:36:24;;;;;;;15.35;9.82;;;;;;;-1.03;100.00;101576.19;4985517;28;20358;-52
2021/03/18 00:38:51;;;;;;;15.70;10.07;;;;;;;-1.14;100.00;101574.41;4984888;28;20063;-50
2021/03/18 00:41:19;;;;;;;13.18;9.18;;;;;;;-1.01;100.00;101571.31;4985881;28;20107;-51
2021/03/18 00:43:45;;;;;;;13.73;9.70;;;;;;;-1.30;100.00;101573.81;4984605;28;20101;-53
2021/03/18 00:46:12;;;;;;;14.75;9.20;;;;;;;-1.39;100.00;101573.88;4985177;28;20053;-48
2021/03/18 00:48:39;;;;;;;15.15;9.68;;;;;;;-1.58;100.00;101560.47;4984325;28;20049;-48
2021/03/18 00:51:08;;;;;;;16.27;11.68;;;;;;;-1.61;100.00;101562.75;4985854;28;20686;-51
2021/03/18 00:53:38;;;;;;;23.40;11.43;;;;;;;-1.74;100.00;101554.88;4984744;28;20122;-48
2021/03/18 00:56:12;;;;;;;20.63;13.50;;;;;;;-1.92;100.00;101559.13;4977227;28;20073;-52
2021/03/18 00:58:41;;;;;;;32.28;20.60;;;;;;;-1.72;100.00;101558.38;4984395;28;20526;-47
2021/03/18 01:01:08;;;;;;;34.00;18.17;;;;;;;-1.56;100.00;101554.84;4985674;28;21419;-47
2021/03/18 01:03:37;;;;;;;29.15;18.38;;;;;;;-1.93;100.00;101549.84;4984934;28;20056;-50
2021/03/18 01:06:19;;;;;;;22.30;15.15;;;;;;;-1.93;100.00;101547.34;4985423;28;20057;-49
2021/03/18 01:08:46;;;;;;;17.58;10.68;;;;;;;-1.74;100.00;101540.69;4984811;28;20061;-48
2021/03/18 01:11:18;;;;;;;12.70;9.68;;;;;;;-1.47;100.00;101546.38;4985864;28;20105;-48
2021/03/18 01:13:48;;;;;;;15.50;10.02;;;;;;;-1.63;100.00;101539.97;4984781;28;20046;-49
2021/03/18 01:16:16;;;;;;;14.30;10.40;;;;;;;-2.06;100.00;101543.72;4991381;28;20054;-50
2021/03/18 01:18:52;;;;;;;14.80;10.00;;;;;;;-2.14;100.00;101547.16;4990312;28;20051;-53
2021/03/18 01:21:22;;;;;;;12.45;8.73;;;;;;;-1.75;100.00;101546.47;4991387;28;20143;-51
2021/03/18 01:23:48;;;;;;;14.95;9.07;;;;;;;-1.73;100.00;101541.56;4987695;28;20038;-47
2021/03/18 01:26:15;;;;;;;12.27;8.38;;;;;;;-1.95;100.00;101547.16;4988618;28;20050;-50
2021/03/18 01:28:42;;;;;;;12.25;8.30;;;;;;;-2.03;100.00;101550.66;4988242;28;20073;-48
2021/03/18 01:31:11;;;;;;;15.30;9.45;;;;;;;-2.16;100.00;101542.75;4988582;28;20165;-52
2021/03/18 01:33:41;;;;;;;11.77;8.35;;;;;;;-1.64;100.00;101550.78;4988251;28;20073;-53
2021/03/18 01:36:12;;;;;;;13.05;9.00;;;;;;;-1.67;100.00;101542.97;4988728;28;20840;-51
2021/03/18 01:38:44;;;;;;;12.25;8.27;;;;;;;-1.65;100.00;101548.16;4987639;28;20074;-51
2021/03/18 01:41:11;;;;;;;13.50;9.10;;;;;;;-2.22;100.00;101553.09;4988635;28;20669;-49
2021/03/18 01:43:38;;;;;;;13.43;8.85;;;;;;;-2.20;100.00;101549.13;4988120;28;20058;-50
2021/03/18 01:46:05;;;;;;;14.20;9.10;;;;;;;-2.07;100.00;101548.63;4980962;28;20050;-50
2021/03/18 01:48:32;;;;;;;14.18;8.75;;;;;;;-2.39;100.00;101545.72;4987737;28;20065;-50
2021/03/18 01:51:00;;;;;;;15.32;9.30;;;;;;;-2.34;100.00;101542.88;4987745;28;20046;-52
2021/03/18 01:53:28;;;;;;;12.50;8.80;;;;;;;-1.89;100.00;101546.88;4972727;28;20050;-49
2021/03/18 01:55:57;;;;;;;15.60;9.40;;;;;;;-1.88;100.00;101548.63;4987334;28;20788;-48
2021/03/18 01:58:24;;;;;;;13.45;8.18;;;;;;;-1.69;100.00;101546.09;4993721;28;20051;-53
2021/03/18 02:00:54;;;;;;;14.85;8.90;;;;;;;-1.42;100.00;101543.50;4987541;28;20057;-52
2021/03/18 02:03:21;;;;;;;12.80;8.30;;;;;;;-1.88;100.00;101541.97;4988394;28;20046;-50
2021/03/18 02:05:49;;;;;;;12.85;8.68;;;;;;;-1.91;100.00;101539.19;4987125;28;20046;-49
2021/03/18 02:08:15;;;;;;;14.73;8.93;;;;;;;-1.40;100.00;101528.53;4988302;28;20054;-49
2021/03/18 02:10:42;;;;;;;14.90;8.73;;;;;;;-1.45;100.00;101539.84;4987289;28;20065;-49
2021/03/18 02:13:11;;;;;;;13.20;8.85;;;;;;;-1.23;100.00;101533.41;4987982;28;20493;-49
2021/03/18 02:15:45;;;;;;;14.18;9.10;;;;;;;-1.71;100.00;101543.47;4987278;28;20061;-47
2021/03/18 02:18:18;;;;;;;14.32;9.13;;;;;;;-1.75;100.00;101531.38;4987560;28;20042;-51
2021/03/18 02:21:22;;;;;;;14.35;8.27;;;;;;;-2.08;100.00;101534.28;4986846;28;20837;-48
2021/03/18 02:24:13;;;;;;;13.73;9.00;;;;;;;-2.01;100.00;101531.59;4986760;28;20044;-49
2021/03/18 02:27:05;;;;;;;14.70;9.07;;;;;;;-2.11;100.00;101529.00;4986549;28;20054;-50
2021/03/18 02:30:02;;;;;;;14.00;9.30;;;;;;;-2.09;100.00;101525.88;4987125;28;20058;-49
2021/03/18 02:33:19;;;;;;;12.05;8.45;;;;;;;-1.88;100.00;101528.53;4986983;28;20050;-51
2021/03/18 02:35:50;;;;;;;13.32;8.82;;;;;;;-1.91;100.00;101538.28;4905002;29;20047;-48
2021/03/18 02:38:34;;;;;;;13.60;9.52;;;;;;;-1.94;100.00;101526.38;4987128;28;20050;-49
2021/03/18 02:41:13;;;;;;;15.27;9.63;;;;;;;-2.06;100.00;101522.75;4986986;28;20065;-53
2021/03/18 02:44:06;;;;;;;16.08;9.70;;;;;;;-2.10;100.00;101523.22;4987061;28;20042;-51
2021/03/18 02:46:34;;;;;;;20.33;10.20;;;;;;;-2.02;100.00;101529.81;4986381;28;20126;-50
2021/03/18 02:49:04;;;;;;;15.25;9.93;;;;;;;-2.03;100.00;101523.06;4987042;28;20707;-50
2021/03/18 02:51:33;;;;;;;14.00;10.25;;;;;;;-1.70;100.00;101522.63;4986847;28;20106;-48
2021/03/18 02:54:09;;;;;;;16.40;10.80;;;;;;;-1.73;100.00;101514.81;4993171;28;20046;-51
2021/03/18 02:56:45;;;;;;;16.75;10.20;;;;;;;-1.45;100.00;101514.72;4987101;28;20050;-47
2021/03/18 02:59:16;;;;;;;13.30;9.68;;;;;;;-1.19;100.00;101514.47;4987219;28;20038;-52
2021/03/18 03:01:45;;;;;;;12.38;9.25;;;;;;;-1.18;100.00;101511.19;4986210;28;20054;-53
2021/03/18 03:04:13;;;;;;;16.52;9.77;;;;;;;-1.18;100.00;101508.69;4986951;28;20047;-51
2021/03/18 03:06:41;;;;;;;13.65;9.07;;;;;;;-0.84;100.00;101505.75;4986320;28;20047;-52
2021/03/18 03:09:09;;;;;;;12.10;8.30;;;;;;;-1.14;100.00;101509.06;4992214;28;20704;-51
2021/03/18 03:11:39;;;;;;;14.23;9.60;;;;;;;-1.31;100.00;101515.16;4986070;28;20041;-48
2021/03/18 03:14:08;;;;;;;13.88;9.57;;;;;;;-1.38;100.00;101512.88;4979192;28;20048;-51
2021/03/18 03:16:36;;;;;;;11.95;8.82;;;;;;;-1.34;100.00;101519.03;4986057;28;20045;-54
2021/03/18 03:19:05;;;;;;;13.18;9.85;;;;;;;-1.25;100.00;101521.44;4987037;28;20416;-49
2021/03/18 03:21:32;;;;;;;14.75;10.18;;;;;;;-1.37;100.00;101509.59;4986219;28;20054;-48
2021/03/18 03:24:02;;;;;;;13.82;9.65;;;;;;;-1.36;100.00;101510.50;4986583;28;20060;-51
2021/03/18 03:26:32;;;;;;;14.30;9.25;;;;;;;-1.19;100.00;101511.94;4989856;28;20049;-53
2021/03/18 03:29:00;;;;;;;13.75;9.10;;;;;;;-1.52;100.00;101512.44;4988026;28;20050;-50
2021/03/18 03:31:26;;;;;;;14.93;9.73;;;;;;;-1.55;100.00;101506.38;4986358;28;20046;-53
2021/03/18 03:34:05;;;;;;;16.60;10.65;;;;;;;-1.47;100.00;101511.22;4986608;28;20070;-48
2021/03/18 03:36:33;;;;;;;13.55;9.55;;;;;;;-1.65;100.00;101510.47;4986213;28;20555;-52
2021/03/18 03:39:00;;;;;;;15.30;10.23;;;;;;;-1.14;100.00;101515.72;4986268;28;20054;-54
2021/03/18 03:41:27;;;;;;;14.88;9.65;;;;;;;-1.33;100.00;101511.63;4991283;28;20039;-52
2021/03/18 03:43:54;;;;;;;12.23;9.63;;;;;;;-0.80;100.00;101506.88;4985873;28;20073;-52
2021/03/18 03:46:20;;;;;;;14.68;9.65;;;;;;;-0.87;100.00;101513.03;4986483;28;20046;-50
2021/03/18 03:48:48;;;;;;;14.50;10.00;;;;;;;-0.93;100.00;101510.00;4985695;28;20056;-53
2021/03/18 03:51:15;;;;;;;13.25;9.15;;;;;;;-0.94;100.00;101510.75;4986189;28;20042;-47
2021/03/18 03:54:02;;;;;;;15.68;9.82;;;;;;;-0.88;100.00;101508.78;4985058;28;20042;-52
2021/03/18 03:56:37;;;;;;;14.75;10.05;;;;;;;-0.88;100.00;101511.28;4986103;28;20053;-53
2021/03/18 03:59:13;;;;;;;13.10;10.02;;;;;;;-1.27;100.00;101507.88;4988280;28;20058;-53
2021/03/18 04:01:44;;;;;;;14.30;9.90;;;;;;;-1.54;100.00;101500.59;4992401;28;20038;-51
2021/03/18 04:04:29;;;;;;;13.55;9.43;;;;;;;-1.11;100.00;101509.34;4992037;28;20046;-49
2021/03/18 04:06:59;;;;;;;15.30;10.27;;;;;;;-0.77;100.00;101503.00;4984958;28;20050;-53
2021/03/18 04:09:28;;;;;;;15.15;9.88;;;;;;;-1.25;100.00;101502.22;4997360;28;20073;-53
2021/03/18 04:11:56;;;;;;;13.07;9.88;;;;;;;-0.73;100.00;101509.19;4990449;28;20053;-52
2021/03/18 04:14:27;;;;;;;15.52;10.25;;;;;;;-1.12;100.00;101502.53;4993514;28;20050;-51
2021/03/18 04:16:58;;;;;;;17.55;10.98;;;;;;;-0.81;100.00;101495.94;4985849;28;20060;-50
2021/03/18 04:19:26;;;;;;;16.40;10.93;;;;;;;-1.04;100.00;101495.66;4990751;28;20112;-53
2021/03/18 04:21:54;;;;;;;15.27;10.77;;;;;;;-1.25;100.00;101493.81;4984700;28;20046;-52
2021/03/18 04:24:24;;;;;;;15.63;11.27;;;;;;;-1.25;100.00;101498.84;4985784;28;20042;-50
2021/03/18 04:26:52;;;;;;;18.27;11.27;;;;;;;-1.19;100.00;101495.22;4989280;28;20046;-52
2021/03/18 04:29:20;;;;;;;16.45;11.60;;;;;;;-1.50;100.00;101500.88;4996926;28;20121;-50
2021/03/18 04:31:48;;;;;;;18.73;12.40;;;;;;;-1.58;100.00;101497.69;4993416;28;20128;-53
2021/03/18 04:34:18;;;;;;;19.95;11.50;;;;;;;-1.27;100.00;101497.84;4986179;28;20133;-51
2021/03/18 04:36:45;;;;;;;18.35;12.18;;;;;;;-1.35;100.00;101499.69;4984069;28;20054;-50
2021/03/18 04:39:13;;;;;;;20.63;12.65;;;;;;;-1.46;100.00;101498.78;4986057;28;20042;-48
2021/03/18 04:41:40;;;;;;;16.25;11.52;;;;;;;-1.18;100.00;101497.00;4986610;28;20046;-49
2021/03/18 04:44:08;;;;;;;16.83;11.05;;;;;;;-1.25;100.00;101502.22;4985873;28;20050;-51
2021/03/18 04:46:36;;;;;;;18.60;11.90;;;;;;;-1.20;100.00;101501.03;4989576;28;20627;-52
2021/03/18 04:49:04;;;;;;;16.88;12.00;;;;;;;-1.29;100.00;101497.72;4957745;28;844847;-51
2021/03/18 04:51:31;;;;;;;17.75;12.23;;;;;;;-1.47;100.00;101489.47;4991457;28;20058;-47
2021/03/18 04:53:59;;;;;;;18.13;12.18;;;;;;;-1.21;100.00;101495.84;4984522;28;20054;-50
2021/03/18 04:56:33;;;;;;;17.65;11.95;;;;;;;-1.29;100.00;101491.06;4987334;28;20057;-47
2021/03/18 04:59:01;;;;;;;18.50;12.35;;;;;;;-0.80;100.00;101491.78;4989688;28;20137;-51
2021/03/18 05:01:30;;;;;;;17.30;12.27;;;;;;;-0.92;100.00;101488.28;4989138;28;20050;-47
2021/03/18 05:03:58;;;;;;;14.82;10.90;;;;;;;-0.80;100.00;101490.16;4989071;28;20046;-49
2021/03/18 05:06:27;;;;;;;17.25;11.40;;;;;;;-0.74;100.00;101492.31;4989606;28;20077;-48
2021/03/18 05:08:55;;;;;;;17.23;11.90;;;;;;;-0.64;100.00;101483.91;4989041;28;20072;-49
2021/03/18 05:11:22;;;;;;;17.95;12.10;;;;;;;-0.81;100.00;101479.97;4990080;28;20053;-46
2021/03/18 05:13:49;;;;;;;15.32;10.98;;;;;;;-1.24;100.00;101483.91;4998168;28;20050;-45
2021/03/18 05:16:16;;;;;;;14.57;11.32;;;;;;;-1.01;100.00;101474.94;4990324;28;20049;-49
2021/03/18 05:18:44;;;;;;;17.70;11.40;;;;;;;-0.95;100.00;101478.81;4989685;28;20148;-51
2021/03/18 05:21:11;;;;;;;15.35;10.60;;;;;;;-0.96;100.00;101478.72;4990341;28;20432;-49
2021/03/18 05:23:39;;;;;;;17.00;11.57;;;;;;;-0.68;100.00;101479.38;4989599;28;20046;-45
2021/03/18 05:26:06;;;;;;;17.65;12.88;;;;;;;-0.76;100.00;101476.22;4989968;28;20043;-50
2021/03/18 05:28:33;;;;;;;16.90;11.27;;;;;;;-1.03;100.00;101475.66;4989733;28;20050;-48
2021/03/18 05:31:00;;;;;;;17.85;11.15;;;;;;;-1.02;100.00;101476.53;4989725;28;20046;-51
2021/03/18 05:33:28;;;;;;;16.65;11.20;;;;;;;-0.84;100.00;101469.66;4993295;28;20050;-50
2021/03/18 05:35:56;;;;;;;16.67;12.52;;;;;;;-0.86;100.00;101479.59;4988960;28;20133;-46
2021/03/18 05:38:34;;;;;;;20.63;12.48;;;;;;;-0.75;100.00;101480.47;4980173;28;20061;-51
2021/03/18 05:41:01;;;;;;;13.68;10.35;;;;;;;-0.31;100.00;101473.22;4992101;28;20078;-48
2021/03/18 05:43:28;;;;;;;15.27;10.88;;;;;;;-0.53;100.00;101475.59;4996924;28;20073;-50
2021/03/18 05:45:55;;;;;;;15.93;11.52;;;;;;;-0.28;100.00;101466.81;4988387;28;20722;-51
2021/03/18 05:48:22;;;;;;;15.50;11.38;;;;;;;0.00;100.00;101469.03;4996306;28;20499;-47
2021/03/18 05:50:50;;;;;;;22.20;14.73;;;;;;;-0.12;100.00;101468.03;4998561;28;20064;-50
2021/03/18 05:53:18;;;;;;;23.35;14.38;;;;;;;-0.13;100.00;101469.69;4989130;28;20057;-47
2021/03/18 05:55:51;;;;;;;18.42;12.13;;;;;;;0.14;100.00;101460.03;4988346;28;20523;-52
2021/03/18 05:58:21;;;;;;;17.20;11.82;;;;;;;0.06;100.00;101474.56;4989330;28;20816;-49
2021/03/18 06:00:52;;;;;;;13.57;10.52;;;;;;;0.37;100.00;101472.84;4988573;28;20049;-48
2021/03/18 06:03:19;;;;;;;12.98;10.05;;;;;;;0.01;100.00;101470.78;4989140;28;20161;-51
2021/03/18 06:06:00;;;;;;;14.45;10.90;;;;;;;0.21;100.00;101469.84;4988005;28;20153;-45
2021/03/18 06:08:28;;;;;;;13.93;10.40;;;;;;;0.40;100.00;101470.53;4988221;28;20141;-48
2021/03/18 06:10:56;;;;;;;15.25;10.85;;;;;;;0.33;100.00;101470.84;4991964;28;20061;-46
2021/03/18 06:13:23;;;;;;;14.80;10.52;;;;;;;0.90;98.38;101473.59;4992120;28;20042;-45
2021/03/18 06:15:49;;;;;;;13.68;9.68;;;;;;;0.95;97.43;101466.38;4994907;28;20049;-52
2021/03/18 06:18:20;;;;;;;14.95;10.68;;;;;;;0.92;97.51;101466.13;4992209;28;20049;-47
2021/03/18 06:20:52;;;;;;;14.10;9.10;;;;;;;0.87;96.99;101472.47;4987490;28;20062;-54
2021/03/18 06:23:20;;;;;;;13.32;10.38;;;;;;;0.67;98.37;101466.78;4988640;28;20046;-46
2021/03/18 06:25:48;;;;;;;14.60;10.85;;;;;;;0.86;97.67;101468.19;4987851;28;20046;-54
2021/03/18 06:28:22;;;;;;;14.63;10.57;;;;;;;0.54;98.76;101469.09;4993457;28;20730;-50
2021/03/18 06:31:02;;;;;;;14.50;9.65;;;;;;;1.03;97.83;101465.34;4993579;28;20712;-51
2021/03/18 06:33:33;;;;;;;15.48;10.23;;;;;;;0.71;98.84;101462.88;4988787;28;20935;-50
2021/03/18 06:36:34;;;;;;;14.60;10.15;;;;;;;0.95;97.94;101467.25;4988189;28;20050;-48
2021/03/18 06:39:07;;;;;;;12.63;9.77;;;;;;;0.70;99.61;101462.00;4987849;28;20050;-50
2021/03/18 06:41:39;;;;;;;13.65;10.23;;;;;;;0.58;100.00;101470.22;4990688;28;20504;-47
2021/03/18 06:44:24;;;;;;;12.80;10.73;;;;;;;0.67;100.00;101474.34;4992100;28;20053;-51
2021/03/18 06:46:52;;;;;;;12.60;10.15;;;;;;;1.34;97.08;101465.09;4985550;28;20136;-50
2021/03/18 06:49:20;;;;;;;15.15;11.38;;;;;;;0.95;97.60;101454.66;4987165;28;20046;-52
2021/03/18 06:52:08;;;;;;;15.07;11.15;;;;;;;0.84;96.93;101457.13;4986602;28;20759;-47
2021/03/18 06:54:37;;;;;;;13.85;10.50;;;;;;;0.91;99.32;101457.69;4986731;28;20060;-49
2021/03/18 06:57:04;;;;;;;14.20;10.70;;;;;;;1.20;95.73;101457.41;4987084;28;20504;-53
2021/03/18 06:59:32;;;;;;;12.93;10.70;;;;;;;1.14;96.01;101459.44;4986979;28;20049;-48
2021/03/18 07:02:13;;;;;;;15.82;10.68;;;;;;;0.80;97.74;101462.69;4989655;28;20042;-51
2021/03/18 07:04:56;;;;;;;16.67;11.50;;;;;;;0.91;96.81;101451.78;4987262;28;20046;-47
2021/03/18 07:07:28;;;;;;;15.95;11.70;;;;;;;2.06;94.01;101458.66;4992389;28;20050;-52
2021/03/18 07:09:55;;;;;;;10.30;8.73;;;;;;;2.71;89.11;101451.44;4986795;28;20050;-52
2021/03/18 07:12:31;;;;;;;11.65;8.55;;;;;;;2.45;90.24;101452.16;4993575;28;20754;-50
2021/03/18 07:15:02;;;;;;;14.02;10.15;;;;;;;2.45;89.67;101454.69;4987469;28;20224;-50
2021/03/18 07:17:34;;;;;;;13.90;9.05;;;;;;;2.49;89.64;101455.00;4992430;28;20440;-49
2021/03/18 07:20:15;;;;;;;13.50;10.30;;;;;;;2.35;91.03;101457.34;4964711;28;20066;-49
2021/03/18 07:22:46;;;;;;;;;;;;;;;2.14;93.73;101442.41;4986828;28;20053;-46
2021/03/18 07:25:15;;;;;;;13.68;10.48;;;;;;;2.26;92.45;101450.84;4989612;28;19925;-45
2021/03/18 07:27:45;;;;;;;13.20;9.68;;;;;;;2.49;91.30;101446.53;4991324;28;20069;-49
2021/03/18 07:30:32;;;;;;;12.32;10.15;;;;;;;2.34;91.53;101442.94;4992935;28;20065;-50
2021/03/18 07:33:00;;;;;;;12.82;9.90;;;;;;;2.56;92.40;101441.16;4986820;28;20054;-48
2021/03/18 07:35:28;;;;;;;15.48;10.55;;;;;;;1.87;96.12;101436.25;4986261;28;20073;-48
2021/03/18 07:37:56;;;;;;;13.68;10.43;;;;;;;1.93;94.82;101431.63;4986492;28;20424;-51
2021/03/18 07:40:25;;;;;;;15.05;11.35;;;;;;;2.01;95.29;101430.56;4993233;28;20064;-48
2021/03/18 07:42:52;;;;;;;15.30;11.27;;;;;;;2.03;94.71;101428.13;4986234;28;20053;-48
2021/03/18 07:45:21;;;;;;;12.38;10.43;;;;;;;2.13;94.42;101422.97;4986817;28;20049;-50
2021/03/18 07:47:48;;;;;;;15.05;11.35;;;;;;;1.72;97.47;101422.53;4986117;28;20057;-47
2021/03/18 07:50:18;;;;;;;14.40;10.43;;;;;;;2.06;97.16;101427.47;4992730;28;20855;-47
2021/03/18 07:52:48;;;;;;;17.25;11.63;;;;;;;2.24;96.88;101422.06;4986237;28;20043;-50
2021/03/18 07:55:19;;;;;;;15.15;10.65;;;;;;;2.70;95.15;101427.81;4986871;28;20054;-50
2021/03/18 07:57:50;;;;;;;13.50;10.55;;;;;;;3.05;93.07;101421.75;4991283;28;20428;-48
2021/03/18 08:00:23;;;;;;;12.82;10.57;;;;;;;3.06;91.63;101421.88;4992506;28;20132;-49
2021/03/18 08:02:52;;;;;;;12.85;10.88;;;;;;;2.60;94.39;101419.50;4985894;28;20042;-48
2021/03/18 08:05:39;;;;;;;14.18;10.80;;;;;;;2.62;94.37;101421.34;4987200;28;20049;-45
2021/03/18 08:08:36;;;;;;;12.15;10.13;;;;;;;3.22;90.97;101423.75;4993444;28;20619;-48
2021/03/18 08:11:12;;;;;;;14.73;10.13;;;;;;;3.27;91.81;101422.41;4989688;28;20156;-47
2021/03/18 08:13:41;;;;;;;14.05;10.10;;;;;;;3.43;90.67;101425.97;4990690;28;20053;-49
2021/03/18 08:16:28;;;;;;;13.70;9.68;;;;;;;3.42;89.65;101419.13;4987611;28;20056;-52
2021/03/18 08:18:56;;;;;;;15.15;10.25;;;;;;;3.36;90.15;101421.28;4985656;28;20074;-46
2021/03/18 08:21:34;;;;;;;15.95;11.23;;;;;;;2.88;91.64;101425.69;4992343;28;20546;-45
2021/03/18 08:24:02;;;;;;;14.80;11.07;;;;;;;2.59;93.50;101412.66;4986159;28;20050;-51
2021/03/18 08:26:45;;;;;;;15.65;10.25;;;;;;;3.19;90.40;101418.50;4985748;28;20061;-47
2021/03/18 08:29:20;;;;;;;14.50;11.20;;;;;;;3.30;89.00;101422.63;4992862;28;20058;-48
2021/03/18 08:31:54;;;;;;;13.68;9.95;;;;;;;3.44;89.42;101420.13;4985938;28;20493;-49
2021/03/18 08:34:40;;;;;;;13.00;9.70;;;;;;;3.75;86.47;101415.41;4996646;28;20508;-51
2021/03/18 08:37:07;;;;;;;18.23;11.13;;;;;;;3.77;86.50;101418.91;4990362;28;20057;-51
2021/03/18 08:39:50;;;;;;;14.77;10.63;;;;;;;3.69;86.90;101415.88;5000216;28;20050;-48
2021/03/18 08:42:29;;;;;;;17.27;9.98;;;;;;;3.37;90.59;101420.50;4991327;28;20046;-46
2021/03/18 08:44:56;;;;;;;15.43;10.80;;;;;;;2.97;91.91;101412.78;4991392;28;20053;-50
2021/03/18 08:47:42;;;;;;;14.27;10.35;;;;;;;3.54;88.36;101414.88;4998759;28;20056;-46
2021/03/18 08:50:23;;;;;;;12.13;8.93;;;;;;;4.00;86.54;101415.31;4994320;28;20042;-46
2021/03/18 08:52:50;;;;;;;14.32;10.25;;;;;;;3.68;89.20;101415.78;4989848;28;20050;-45
2021/03/18 08:55:36;;;;;;;14.40;10.20;;;;;;;4.07;87.17;101407.34;4995199;28;20060;-48
2021/03/18 08:58:04;;;;;;;11.98;9.45;;;;;;;4.22;88.07;101409.97;4989363;28;20054;-48
2021/03/18 09:00:33;;;;;;;14.48;9.02;;;;;;;4.22;85.59;101404.88;4989216;28;20050;-48
2021/03/18 09:03:01;;;;;;;12.32;9.77;;;;;;;4.52;86.60;101405.88;4996501;28;20056;-48
2021/03/18 09:05:29;;;;;;;12.93;10.15;;;;;;;4.79;85.49;101404.16;4991900;28;20053;-43
2021/03/18 09:07:59;;;;;;;13.93;8.70;;;;;;;5.15;83.38;101409.69;4999769;28;20056;-46
2021/03/18 09:10:32;;;;;;;10.48;9.20;;;;;;;4.95;84.76;101401.78;4999200;28;20049;-48
2021/03/18 09:13:02;;;;;;;14.38;10.80;;;;;;;5.49;82.56;101403.22;4994548;28;20120;-47
2021/03/18 09:15:35;;;;;;;12.98;9.25;;;;;;;5.75;81.24;101397.09;4988666;28;20066;-51
2021/03/18 09:18:22;;;;;;;13.27;9.25;;;;;;;6.04;79.96;101396.19;4989720;28;20057;-48
2021/03/18 09:20:56;;;;;;;11.27;8.23;;;;;;;6.50;77.55;101402.91;4988410;28;20687;-49
2021/03/18 09:23:26;;;;;;;14.20;8.68;;;;;;;6.61;78.90;101396.75;4994783;28;20101;-51
2021/03/18 09:25:56;;;;;;;14.15;10.57;;;;;;;6.43;78.74;101401.72;4996224;28;20772;-46
2021/03/18 09:28:23;;;;;;;12.65;9.27;;;;;;;6.74;75.97;101396.56;4997324;28;20049;-44
2021/03/18 09:30:55;;;;;;;11.05;8.45;;;;;;;6.93;76.03;101398.41;4989640;28;20046;-49
2021/03/18 09:33:33;;;;;;;12.98;9.55;;;;;;;6.41;77.61;101403.28;4991214;28;20131;-51
2021/03/18 09:36:24;;;;;;;10.15;8.40;;;;;;;7.35;74.10;101397.19;4988818;28;20058;-48
2021/03/18 09:39:06;;;;;;;12.45;8.05;;;;;;;6.93;76.97;101400.06;4976167;28;20053;-49
2021/03/18 09:41:36;;;;;;;14.15;8.80;;;;;;;7.51;72.65;101397.94;4994126;28;20053;-45
2021/03/18 09:44:10;;;;;;;10.82;7.80;;;;;;;7.71;72.35;101392.13;4990721;28;20069;-47
2021/03/18 09:46:38;;;;;;;10.48;8.05;;;;;;;8.24;69.46;101387.81;4994839;28;20052;-49
2021/03/18 09:49:17;;;;;;;9.75;8.13;;;;;;;7.80;70.82;101396.78;4996723;28;20455;-48
2021/03/18 09:51:45;;;;;;;9.50;7.88;;;;;;;7.76;70.26;101394.88;4988434;28;20512;-51
2021/03/18 09:54:13;;;;;;;9.93;7.78;;;;;;;8.16;69.90;101393.44;5000805;28;20046;-51
2021/03/18 09:56:45;;;;;;;10.63;7.85;;;;;;;8.04;69.56;101389.44;4997641;28;20068;-45
2021/03/18 09:59:12;;;;;;;10.70;8.13;;;;;;;7.81;70.55;101385.78;5002137;28;20050;-47
2021/03/18 10:01:39;;;;;;;12.98;10.02;;;;;;;7.05;73.97;101380.34;4997993;28;20053;-49
2021/03/18 10:04:15;;;;;;;12.75;8.73;;;;;;;7.30;74.34;101382.44;4984434;28;20142;-46
2021/03/18 10:06:49;;;;;;;11.48;8.40;;;;;;;7.25;73.00;101379.66;4994492;28;20058;-47
2021/03/18 10:09:23;;;;;;;9.20;7.70;;;;;;;6.74;76.16;101380.41;4993841;28;20046;-47
2021/03/18 10:11:53;;;;;;;8.60;5.88;;;;;;;7.07;72.64;101383.81;4988252;28;20046;-48
2021/03/18 10:14:22;;;;;;;6.05;4.60;;;;;;;6.96;72.90;101377.31;4998762;28;20144;-48
2021/03/18 10:17:09;;;;;;;6.03;4.22;;;;;;;6.99;72.56;101378.38;5000176;28;20097;-50
2021/03/18 10:19:53;;;;;;;5.65;4.57;;;;;;;6.25;74.40;101372.75;5001286;28;20049;-46
2021/03/18 10:22:29;;;;;;;9.27;4.97;;;;;;;7.57;73.03;101376.16;4992863;28;20050;-48
2021/03/18 10:25:10;;;;;;;7.00;4.15;;;;;;;7.44;72.84;101375.47;4987665;28;20567;-47
2021/03/18 10:27:41;;;;;;;5.28;3.58;;;;;;;8.10;69.98;101372.75;4998010;28;20049;-49
2021/03/18 10:30:13;;;;;;;9.98;5.57;;;;;;;8.03;69.99;101368.16;4991285;28;20145;-50
2021/03/18 10:33:00;;;;;;;4.05;2.90;;;;;;;7.78;68.90;101370.34;4999293;28;20044;-49
2021/03/18 10:35:27;;;;;;;;;;;;;;;8.75;67.87;101363.81;4998717;28;20042;-52
2021/03/18 10:37:54;;;;;;;5.53;3.38;;;;;;;9.61;62.56;101354.59;4987364;28;19932;-45
2021/03/18 10:40:38;;;;;;;5.60;3.97;;;;;;;8.91;65.58;101358.53;4988625;28;20053;-45
2021/03/18 10:43:23;;;;;;;6.20;4.60;;;;;;;9.29;64.22;101348.19;4994218;28;20050;-47
2021/03/18 10:45:52;;;;;;;6.82;4.50;;;;;;;9.55;63.43;101347.56;4987204;28;20121;-43
2021/03/18 10:48:22;;;;;;;5.93;4.57;;;;;;;9.32;65.08;101338.97;4988393;28;20070;-47
2021/03/18 10:50:50;;;;;;;7.20;4.53;;;;;;;9.09;66.35;101342.25;4987386;28;20496;-49
2021/03/18 10:53:19;;;;;;;6.53;4.68;;;;;;;9.60;64.83;101337.53;4988552;28;20054;-50
2021/03/18 10:56:03;;;;;;;7.95;4.00;;;;;;;11.83;57.63;101344.66;4988858;28;20052;-48
2021/03/18 10:58:31;;;;;;;4.78;4.15;;;;;;;11.86;55.45;101342.19;4989804;28;20050;-45
2021/03/18 11:01:09;;;;;;;4.82;3.88;;;;;;;12.41;54.18;101347.28;4988261;28;20046;-48
2021/03/18 11:03:39;;;;;;;5.75;3.88;;;;;;;14.67;48.04;101338.19;4992500;28;20058;-46
2021/03/18 11:06:24;;;;;;;3.85;3.45;;;;;;;16.47;43.99;101335.00;4988229;28;20046;-47
2021/03/18 11:08:55;;;;;;;4.47;3.78;;;;;;;13.66;48.05;101329.13;4987060;28;20353;-45
2021/03/18 11:11:31;;;;;;;4.78;3.42;;;;;;;13.22;48.53;101331.50;4987846;28;20042;-51
2021/03/18 11:14:08;;;;;;;5.38;3.80;;;;;;;13.96;47.46;101323.81;4986971;28;20077;-51
2021/03/18 11:16:35;;;;;;;4.30;3.58;;;;;;;13.93;49.21;101323.75;4986753;28;20528;-51
2021/03/18 11:19:10;;;;;;;4.50;3.50;;;;;;;15.57;44.10;101324.25;4987747;28;20051;-46
2021/03/18 11:21:42;;;;;;;3.90;3.15;;;;;;;17.30;39.19;101316.88;4986526;28;20436;-52
2021/03/18 11:24:15;;;;;;;4.60;3.95;;;;;;;18.29;36.90;101323.56;4987638;28;20137;-46
2021/03/18 11:26:44;;;;;;;5.55;4.25;;;;;;;17.87;37.35;101313.84;4986718;28;20046;-50
2021/03/18 11:29:15;;;;;;;6.22;4.38;;;;;;;17.71;38.27;101313.72;4982548;28;20098;-49
2021/03/18 11:31:49;;;;;;;4.03;3.65;;;;;;;19.20;34.07;101309.09;4986865;28;20831;-50
2021/03/18 11:34:27;;;;;;;4.38;3.97;;;;;;;20.02;31.64;101309.00;4992525;28;20081;-49
2021/03/18 11:36:59;;;;;;;5.47;4.10;;;;;;;20.31;31.60;101300.19;4986590;28;20046;-49